createdAt,value
2019-03-17T07:06:10.175Z,268.00
2019-03-17T07:07:10.148Z,284.00
2019-03-17T07:08:10.129Z,296.00
2019-03-17T07:09:10.104Z,308.00
2019-03-17T07:10:10.076Z,332.00
2019-03-17T07:11:11.129Z,348.00
2019-03-17T07:12:10.035Z,364.00
2019-03-17T07:13:10.008Z,356.00
2019-03-17T07:14:09.987Z,348.00
2019-03-17T07:15:09.966Z,340.00
2019-03-17T07:16:09.946Z,316.00
2019-03-17T07:17:10.724Z,316.00
2019-03-17T07:18:09.904Z,320.00
2019-03-17T07:19:09.883Z,316.00
2019-03-17T07:20:09.865Z,324.00
2019-03-17T07:21:09.848Z,336.00
2019-03-17T07:22:09.825Z,340.00
2019-03-17T07:23:09.815Z,336.00
2019-03-17T07:24:09.787Z,348.00
2019-03-17T07:25:09.768Z,340.00
2019-03-17T07:26:09.748Z,352.00
2019-03-17T07:27:09.729Z,360.00
2019-03-17T07:28:10.511Z,372.00
2019-03-17T07:29:09.692Z,392.00
2019-03-17T07:30:09.676Z,408.00
2019-03-17T07:31:09.657Z,420.00
2019-03-17T07:32:09.636Z,424.00
2019-03-17T07:33:09.619Z,436.00
2019-03-17T07:34:09.600Z,436.00
2019-03-17T07:35:09.582Z,436.00
2019-03-17T07:36:09.564Z,432.00
2019-03-17T07:37:09.646Z,428.00
2019-03-17T07:38:09.528Z,416.00
2019-03-17T07:39:12.073Z,408.00
2019-03-17T07:40:09.492Z,404.00
2019-03-17T07:41:09.475Z,392.00
2019-03-17T07:42:09.456Z,372.00
2019-03-17T07:43:09.438Z,368.00
2019-03-17T07:44:09.421Z,368.00
2019-03-17T07:45:09.406Z,356.00
2019-03-17T07:46:09.384Z,356.00
2019-03-17T07:47:09.366Z,364.00
2019-03-17T07:48:09.352Z,360.00
2019-03-17T07:49:09.331Z,368.00
2019-03-17T07:50:09.318Z,372.00
2019-03-17T07:51:09.296Z,384.00
2019-03-17T07:52:09.281Z,400.00
2019-03-17T07:53:09.262Z,388.00
2019-03-17T07:54:09.245Z,384.00
2019-03-17T07:55:09.229Z,392.00
2019-03-17T07:56:09.216Z,376.00
2019-03-17T07:57:09.197Z,368.00
2019-03-17T07:58:09.175Z,364.00
2019-03-17T07:59:09.158Z,360.00
2019-03-17T08:00:09.142Z,364.00
2019-03-17T08:01:09.121Z,372.00
2019-03-17T08:02:09.105Z,372.00
2019-03-17T08:03:09.089Z,368.00
2019-03-17T08:04:09.072Z,360.00
2019-03-17T08:05:09.053Z,348.00
2019-03-17T08:06:09.037Z,352.00
2019-03-17T08:07:09.019Z,356.00
2019-03-17T08:08:10.015Z,356.00
2019-03-17T08:09:08.984Z,348.00
2019-03-17T08:10:09.718Z,328.00
2019-03-17T08:11:08.951Z,328.00
2019-03-17T08:12:08.934Z,316.00
2019-03-17T08:13:08.915Z,308.00
2019-03-17T08:14:08.899Z,304.00
2019-03-17T08:15:08.881Z,288.00
2019-03-17T08:16:08.869Z,252.00
2019-03-17T08:17:08.846Z,256.00
2019-03-17T08:18:08.831Z,260.00
2019-03-17T08:19:08.813Z,240.00
2019-03-17T08:20:08.796Z,248.00
2019-03-17T08:21:09.529Z,276.00
2019-03-17T08:22:08.761Z,272.00
2019-03-17T08:23:08.744Z,292.00
2019-03-17T08:24:08.728Z,276.00
2019-03-17T08:25:08.721Z,296.00
2019-03-17T08:26:08.693Z,288.00
2019-03-17T08:27:08.676Z,300.00
2019-03-17T08:28:08.659Z,260.00
2019-03-17T08:29:08.641Z,256.00
2019-03-17T08:30:08.626Z,256.00
2019-03-17T08:31:08.608Z,252.00
2019-03-17T08:32:10.843Z,256.00
2019-03-17T08:33:08.573Z,260.00
2019-03-17T08:34:08.556Z,264.00
2019-03-17T08:35:08.542Z,276.00
2019-03-17T08:36:08.525Z,292.00
2019-03-17T08:37:08.505Z,332.00
2019-03-17T08:38:20.914Z,336.00
2019-03-17T08:39:08.476Z,304.00
2019-03-17T08:40:08.455Z,300.00
2019-03-17T08:41:08.436Z,320.00
2019-03-17T08:42:08.419Z,384.00
2019-03-17T08:43:08.402Z,488.00
2019-03-17T08:44:08.386Z,468.00
2019-03-17T08:45:08.373Z,420.00
2019-03-17T08:46:08.352Z,296.00
2019-03-17T08:47:08.335Z,264.00
2019-03-17T08:48:08.317Z,260.00
2019-03-17T08:49:08.300Z,252.00
2019-03-17T08:50:08.284Z,256.00
2019-03-17T08:51:08.268Z,288.00
2019-03-17T08:52:08.251Z,320.00
2019-03-17T08:53:08.233Z,452.00
2019-03-17T08:54:08.970Z,724.00
2019-03-17T08:55:08.199Z,928.00
2019-03-17T08:56:08.182Z,1064.00
2019-03-17T08:57:08.165Z,1128.00
2019-03-17T08:58:08.146Z,1056.00
2019-03-17T08:59:08.129Z,1004.00
2019-03-17T09:00:08.120Z,948.00
2019-03-17T09:01:08.099Z,900.00
2019-03-17T09:02:08.079Z,920.00
2019-03-17T09:03:08.063Z,896.00
2019-03-17T09:04:08.045Z,788.00
2019-03-17T09:05:08.789Z,656.00
2019-03-17T09:06:08.011Z,712.00
2019-03-17T09:07:07.995Z,788.00
2019-03-17T09:08:07.978Z,720.00
2019-03-17T09:09:07.959Z,644.00
2019-03-17T09:10:07.943Z,524.00
2019-03-17T09:11:07.926Z,580.00
2019-03-17T09:12:07.909Z,652.00
2019-03-17T09:13:07.895Z,620.00
2019-03-17T09:14:07.876Z,496.00
2019-03-17T09:15:07.861Z,444.00
2019-03-17T09:16:10.095Z,432.00
2019-03-17T09:17:14.177Z,436.00
2019-03-17T09:18:07.808Z,440.00
2019-03-17T09:19:07.793Z,404.00
2019-03-17T09:20:07.775Z,428.00
2019-03-17T09:21:07.756Z,424.00
2019-03-17T09:22:07.738Z,556.00
2019-03-17T09:23:07.723Z,652.00
2019-03-17T09:24:16.652Z,788.00
2019-03-17T09:25:07.689Z,856.00
2019-03-17T09:26:07.693Z,680.00
2019-03-17T09:27:07.655Z,516.00
2019-03-17T09:28:07.638Z,480.00
2019-03-17T09:29:07.621Z,556.00
2019-03-17T09:30:07.604Z,624.00
2019-03-17T09:31:07.796Z,768.00
2019-03-17T09:32:07.570Z,840.00
2019-03-17T09:33:07.552Z,792.00
2019-03-17T09:34:07.536Z,780.00
2019-03-17T09:35:07.519Z,712.00
2019-03-17T09:36:07.504Z,636.00
2019-03-17T09:37:07.485Z,568.00
2019-03-17T09:38:07.518Z,532.00
2019-03-17T09:39:07.451Z,540.00
2019-03-17T09:40:07.434Z,616.00
2019-03-17T09:41:07.415Z,652.00
2019-03-17T09:42:07.400Z,716.00
2019-03-17T09:43:07.383Z,768.00
2019-03-17T09:44:07.367Z,740.00
2019-03-17T09:45:07.349Z,720.00
2019-03-17T09:46:07.332Z,720.00
2019-03-17T09:47:07.316Z,772.00
2019-03-17T09:48:07.298Z,808.00
2019-03-17T09:49:08.031Z,776.00
2019-03-17T09:50:07.264Z,768.00
2019-03-17T09:51:07.248Z,740.00
2019-03-17T09:52:07.229Z,752.00
2019-03-17T09:53:07.215Z,704.00
2019-03-17T09:54:07.195Z,692.00
2019-03-17T09:55:07.179Z,624.00
2019-03-17T09:56:07.162Z,524.00
2019-03-17T09:57:07.145Z,576.00
2019-03-17T09:58:07.128Z,668.00
2019-03-17T09:59:07.111Z,884.00
2019-03-17T10:00:07.094Z,928.00
2019-03-17T10:01:07.076Z,824.00
2019-03-17T10:02:07.062Z,788.00
2019-03-17T10:03:07.043Z,752.00
2019-03-17T10:04:07.029Z,636.00
2019-03-17T10:05:07.860Z,536.00
2019-03-17T10:06:06.992Z,480.00
2019-03-17T10:07:06.975Z,420.00
2019-03-17T10:08:06.961Z,448.00
2019-03-17T10:09:06.940Z,480.00
2019-03-17T10:10:06.924Z,444.00
2019-03-17T10:11:06.906Z,460.00
2019-03-17T10:12:06.891Z,476.00
2019-03-17T10:13:06.873Z,488.00
2019-03-17T10:14:06.855Z,544.00
2019-03-17T10:15:06.854Z,528.00
2019-03-17T10:16:06.896Z,504.00
2019-03-17T10:17:06.804Z,540.00
2019-03-17T10:18:06.787Z,600.00
2019-03-17T10:19:06.770Z,596.00
2019-03-17T10:20:06.754Z,644.00
2019-03-17T10:21:06.735Z,712.00
2019-03-17T10:22:06.719Z,740.00
2019-03-17T10:23:06.702Z,780.00
2019-03-17T10:24:06.701Z,760.00
2019-03-17T10:25:06.670Z,532.00
2019-03-17T10:26:06.653Z,468.00
2019-03-17T10:27:06.636Z,524.00
2019-03-17T10:28:06.618Z,556.00
2019-03-17T10:29:06.606Z,656.00
2019-03-17T10:30:06.583Z,800.00
2019-03-17T10:31:06.609Z,868.00
2019-03-17T10:32:06.549Z,780.00
2019-03-17T10:33:06.532Z,872.00
2019-03-17T10:34:06.515Z,992.00
2019-03-17T10:35:06.505Z,940.00
2019-03-17T10:36:06.481Z,828.00
2019-03-17T10:37:06.465Z,728.00
2019-03-17T10:38:06.445Z,720.00
2019-03-17T10:39:12.384Z,624.00
2019-03-17T10:40:06.465Z,516.00
2019-03-17T10:41:06.395Z,584.00
2019-03-17T10:42:06.378Z,744.00
2019-03-17T10:43:06.365Z,720.00
2019-03-17T10:44:06.345Z,756.00
2019-03-17T10:45:06.327Z,772.00
2019-03-17T10:46:06.380Z,772.00
2019-03-17T10:47:06.294Z,600.00
2019-03-17T10:48:06.278Z,520.00
2019-03-17T10:49:06.259Z,708.00
2019-03-17T10:50:06.241Z,832.00
2019-03-17T10:51:06.233Z,928.00
2019-03-17T10:52:06.210Z,1036.00
2019-03-17T10:53:06.192Z,808.00
2019-03-17T10:54:06.173Z,604.00
2019-03-17T10:55:06.158Z,664.00
2019-03-17T10:56:06.142Z,800.00
2019-03-17T10:57:06.126Z,1016.00
2019-03-17T10:58:06.109Z,1044.00
2019-03-17T10:59:06.089Z,872.00
2019-03-17T11:00:06.073Z,872.00
2019-03-17T11:01:06.058Z,680.00
2019-03-17T11:02:06.038Z,716.00
2019-03-17T11:03:06.025Z,868.00
2019-03-17T11:04:06.005Z,1016.00
2019-03-17T11:05:05.986Z,972.00
2019-03-17T11:06:05.969Z,1028.00
2019-03-17T11:07:05.953Z,984.00
2019-03-17T11:08:08.187Z,740.00
2019-03-17T11:09:05.918Z,736.00
2019-03-17T11:10:05.901Z,968.00
2019-03-17T11:11:05.884Z,1064.00
2019-03-17T11:12:05.869Z,1088.00
2019-03-17T11:13:05.850Z,1160.00
2019-03-17T11:14:05.883Z,1300.00
2019-03-17T11:15:05.815Z,1284.00
2019-03-17T11:16:05.799Z,1080.00
2019-03-17T11:17:05.782Z,996.00
2019-03-17T11:18:05.765Z,948.00
2019-03-17T11:19:05.750Z,1060.00
2019-03-17T11:20:05.731Z,1108.00
2019-03-17T11:21:05.712Z,1224.00
2019-03-17T11:22:05.697Z,1168.00
2019-03-17T11:23:05.710Z,1240.00
2019-03-17T11:24:05.662Z,1080.00
2019-03-17T11:25:07.898Z,1264.00
2019-03-17T11:26:05.630Z,1320.00
2019-03-17T11:27:05.612Z,1404.00
2019-03-17T11:28:05.596Z,1456.00
2019-03-17T11:29:05.577Z,1364.00
2019-03-17T11:30:05.559Z,1304.00
2019-03-17T11:31:06.294Z,1328.00
2019-03-17T11:32:06.680Z,1252.00
2019-03-17T11:33:05.515Z,1136.00
2019-03-17T11:34:05.492Z,944.00
2019-03-17T11:35:05.477Z,920.00
2019-03-17T11:36:05.457Z,872.00
2019-03-17T11:37:05.441Z,872.00
2019-03-17T11:38:05.426Z,856.00
2019-03-17T11:39:05.408Z,840.00
2019-03-17T11:40:05.391Z,696.00
2019-03-17T11:41:05.374Z,768.00
2019-03-17T11:42:05.356Z,948.00
2019-03-17T11:43:05.340Z,1196.00
2019-03-17T11:44:05.323Z,1168.00
2019-03-17T11:45:05.314Z,1256.00
2019-03-17T11:46:05.288Z,1272.00
2019-03-17T11:47:05.270Z,1280.00
2019-03-17T11:48:05.254Z,1336.00
2019-03-17T11:49:05.235Z,1184.00
2019-03-17T11:50:05.220Z,1104.00
2019-03-17T11:51:05.203Z,1368.00
2019-03-17T11:52:05.186Z,1424.00
2019-03-17T11:53:05.977Z,1280.00
2019-03-17T11:54:05.152Z,1148.00
2019-03-17T11:55:05.136Z,956.00
2019-03-17T11:56:05.125Z,1028.00
2019-03-17T11:57:05.105Z,1100.00
2019-03-17T11:58:05.085Z,1068.00
2019-03-17T11:59:05.067Z,1056.00
2019-03-17T12:00:05.051Z,972.00
2019-03-17T12:01:05.034Z,656.00
2019-03-17T12:02:05.018Z,544.00
2019-03-17T12:03:04.998Z,524.00
2019-03-17T12:04:05.732Z,552.00
2019-03-17T12:05:04.965Z,612.00
2019-03-17T12:06:04.948Z,816.00
2019-03-17T12:07:04.930Z,836.00
2019-03-17T12:08:04.913Z,812.00
2019-03-17T12:09:04.895Z,748.00
2019-03-17T12:10:04.879Z,712.00
2019-03-17T12:11:04.863Z,656.00
2019-03-17T12:12:04.845Z,700.00
2019-03-17T12:13:04.828Z,852.00
2019-03-17T12:14:04.811Z,712.00
2019-03-17T12:15:07.898Z,536.00
2019-03-17T12:16:04.777Z,520.00
2019-03-17T12:17:04.762Z,552.00
2019-03-17T12:18:04.743Z,568.00
2019-03-17T12:19:04.725Z,528.00
2019-03-17T12:20:04.709Z,492.00
2019-03-17T12:21:04.695Z,568.00
2019-03-17T12:22:09.333Z,636.00
2019-03-17T12:23:04.658Z,612.00
2019-03-17T12:24:04.641Z,700.00
2019-03-17T12:25:04.621Z,744.00
2019-03-17T12:26:04.605Z,740.00
2019-03-17T12:27:04.589Z,756.00
2019-03-17T12:28:04.571Z,764.00
2019-03-17T12:29:04.555Z,872.00
2019-03-17T12:30:04.537Z,736.00
2019-03-17T12:31:04.521Z,608.00
2019-03-17T12:32:04.503Z,676.00
2019-03-17T12:33:04.486Z,804.00
2019-03-17T12:34:04.469Z,656.00
2019-03-17T12:35:04.453Z,628.00
2019-03-17T12:36:04.436Z,784.00
2019-03-17T12:37:05.976Z,980.00
2019-03-17T12:38:04.401Z,1044.00
2019-03-17T12:39:04.384Z,740.00
2019-03-17T12:40:04.374Z,568.00
2019-03-17T12:41:04.348Z,512.00
2019-03-17T12:42:04.331Z,556.00
2019-03-17T12:43:05.117Z,580.00
2019-03-17T12:44:04.298Z,616.00
2019-03-17T12:45:04.280Z,656.00
2019-03-17T12:46:04.268Z,664.00
2019-03-17T12:47:04.246Z,724.00
2019-03-17T12:48:04.230Z,636.00
2019-03-17T12:49:04.214Z,528.00
2019-03-17T12:50:04.194Z,484.00
2019-03-17T12:51:04.178Z,476.00
2019-03-17T12:52:04.161Z,420.00
2019-03-17T12:53:04.147Z,372.00
2019-03-17T12:54:04.130Z,464.00
2019-03-17T12:55:04.109Z,528.00
2019-03-17T12:56:04.177Z,444.00
2019-03-17T12:57:04.074Z,460.00
2019-03-17T12:58:04.057Z,448.00
2019-03-17T12:59:04.791Z,432.00
2019-03-17T13:00:04.027Z,504.00
2019-03-17T13:01:04.006Z,568.00
2019-03-17T13:02:03.990Z,372.00
2019-03-17T13:03:03.972Z,296.00
2019-03-17T13:04:03.955Z,336.00
2019-03-17T13:05:03.937Z,400.00
2019-03-17T13:06:03.921Z,392.00
2019-03-17T13:07:03.909Z,428.00
2019-03-17T13:08:03.891Z,540.00
2019-03-17T13:09:03.868Z,452.00
2019-03-17T13:10:14.982Z,352.00
2019-03-17T13:11:03.833Z,360.00
2019-03-17T13:12:03.819Z,352.00
2019-03-17T13:13:03.799Z,300.00
2019-03-17T13:14:06.692Z,344.00
2019-03-17T13:15:07.519Z,396.00
2019-03-17T13:16:03.820Z,372.00
2019-03-17T13:17:03.739Z,348.00
2019-03-17T13:18:03.714Z,388.00
2019-03-17T13:19:03.700Z,420.00
2019-03-17T13:20:03.684Z,480.00
2019-03-17T13:21:03.713Z,624.00
2019-03-17T13:22:03.664Z,696.00
2019-03-17T13:23:03.633Z,548.00
2019-03-17T13:24:03.679Z,80.00
2019-03-17T13:25:03.611Z,252.00
2019-03-17T13:26:03.589Z,244.00
2019-03-17T13:27:03.560Z,228.00
2019-03-17T13:28:03.545Z,216.00
2019-03-17T13:29:03.524Z,212.00
2019-03-17T13:30:03.518Z,204.00
2019-03-17T13:31:03.492Z,204.00
2019-03-17T13:32:03.524Z,228.00
2019-03-17T13:33:03.456Z,256.00
2019-03-17T13:34:03.442Z,88.00
2019-03-17T13:35:03.428Z,56.00
2019-03-17T13:36:03.409Z,2216.00
2019-03-17T13:37:03.394Z,2464.00
2019-03-17T13:38:03.375Z,2228.00
2019-03-17T13:39:03.357Z,2104.00
2019-03-17T13:40:03.345Z,2004.00
2019-03-17T13:41:03.321Z,1848.00
2019-03-17T13:42:03.303Z,1672.00
2019-03-17T13:43:03.284Z,1656.00
2019-03-17T13:44:03.280Z,1768.00
2019-03-17T13:45:03.249Z,1856.00
2019-03-17T13:46:03.231Z,1944.00
2019-03-17T13:47:03.209Z,1976.00
2019-03-17T13:48:03.192Z,2144.00
2019-03-17T13:49:03.177Z,2240.00
2019-03-17T13:50:03.151Z,2284.00
2019-03-17T13:51:03.136Z,2400.00
2019-03-17T13:52:03.110Z,2536.00
2019-03-17T13:53:03.092Z,2208.00
2019-03-17T13:54:03.069Z,2572.00
2019-03-17T13:55:03.048Z,2500.00
2019-03-17T13:56:03.028Z,2548.00
2019-03-17T13:57:03.010Z,2576.00
2019-03-17T13:58:02.985Z,2548.00
2019-03-17T13:59:02.966Z,2464.00
2019-03-17T14:00:02.948Z,2376.00
2019-03-17T14:01:02.924Z,2164.00
2019-03-17T14:02:02.909Z,2052.00
2019-03-17T14:03:02.883Z,2012.00
2019-03-17T14:04:02.863Z,2052.00
2019-03-17T14:05:02.842Z,2232.00
2019-03-17T14:06:02.819Z,2368.00
2019-03-17T14:07:02.796Z,2452.00
2019-03-17T14:08:02.775Z,2248.00
2019-03-17T14:09:02.751Z,2088.00
2019-03-17T14:10:12.975Z,2148.00
2019-03-17T14:11:02.708Z,2256.00
2019-03-17T14:12:02.687Z,2240.00
2019-03-17T14:13:02.665Z,2144.00
2019-03-17T14:14:02.644Z,2180.00
2019-03-17T14:15:02.625Z,2196.00
2019-03-17T14:16:02.605Z,2260.00
2019-03-17T14:17:02.579Z,2476.00
2019-03-17T14:18:02.558Z,2656.00
2019-03-17T14:19:02.536Z,2668.00
2019-03-17T14:20:02.514Z,2772.00
2019-03-17T14:21:02.502Z,2912.00
2019-03-17T14:22:02.468Z,2984.00
2019-03-17T14:23:02.449Z,3012.00
2019-03-17T14:24:02.426Z,3140.00
2019-03-17T14:25:02.403Z,3360.00
2019-03-17T14:26:02.383Z,3596.00
2019-03-17T14:27:02.360Z,3724.00
2019-03-17T14:28:02.344Z,3792.00
2019-03-17T14:29:02.314Z,3772.00
2019-03-17T14:30:02.294Z,3768.00
2019-03-17T14:31:02.279Z,3772.00
2019-03-17T14:32:02.250Z,3848.00
2019-03-17T14:33:02.228Z,3956.00
2019-03-17T14:34:02.223Z,4096.00
2019-03-17T14:35:02.185Z,4308.00
2019-03-17T14:36:02.163Z,4684.00
2019-03-17T14:37:02.139Z,4976.00
2019-03-17T14:38:02.133Z,5020.00
2019-03-17T14:39:02.099Z,5224.00
2019-03-17T14:40:02.074Z,5500.00
2019-03-17T14:41:02.051Z,5332.00
2019-03-17T14:42:02.029Z,5060.00
2019-03-17T14:43:02.007Z,4820.00
2019-03-17T14:44:01.987Z,4592.00
2019-03-17T14:45:01.962Z,4504.00
2019-03-17T14:46:01.941Z,4304.00
2019-03-17T14:47:01.919Z,4404.00
2019-03-17T14:48:01.896Z,4440.00
2019-03-17T14:49:01.873Z,4452.00
2019-03-17T14:50:01.851Z,4492.00
2019-03-17T14:51:01.829Z,4548.00
2019-03-17T14:52:01.806Z,4548.00
2019-03-17T14:53:01.783Z,4432.00
2019-03-17T14:54:01.760Z,4352.00
2019-03-17T14:55:01.741Z,4568.00
2019-03-17T14:56:01.722Z,4540.00
2019-03-17T14:57:01.696Z,4264.00
2019-03-17T14:58:01.669Z,3860.00
2019-03-17T14:59:01.650Z,3560.00
2019-03-17T15:00:01.626Z,2596.00
2019-03-17T15:01:01.603Z,2972.00
2019-03-17T15:02:01.579Z,2792.00
2019-03-17T15:03:01.556Z,2640.00
2019-03-17T15:04:01.534Z,2536.00
2019-03-17T15:05:01.510Z,2272.00
2019-03-17T15:06:01.489Z,2108.00
2019-03-17T15:07:01.464Z,2176.00
2019-03-17T15:08:01.441Z,2276.00
2019-03-17T15:09:01.417Z,2324.00
2019-03-17T15:10:01.393Z,2340.00
2019-03-17T15:11:06.153Z,2356.00
2019-03-17T15:12:01.346Z,2312.00
2019-03-17T15:13:01.320Z,2236.00
2019-03-17T15:14:01.298Z,2112.00
2019-03-17T15:15:01.273Z,2116.00
2019-03-17T15:16:03.135Z,2296.00
2019-03-17T15:17:01.225Z,2628.00
2019-03-17T15:18:01.204Z,3064.00
2019-03-17T15:19:01.175Z,3980.00
2019-03-17T15:20:01.150Z,5464.00
2019-03-17T15:21:01.127Z,6196.00
2019-03-17T15:22:01.101Z,5396.00
2019-03-17T15:23:01.076Z,5368.00
2019-03-17T15:24:01.049Z,5416.00
2019-03-17T15:25:01.033Z,5348.00
2019-03-17T15:26:00.999Z,5064.00
2019-03-17T15:27:00.981Z,4516.00
2019-03-17T15:28:00.949Z,4160.00
2019-03-17T15:29:00.924Z,3828.00
2019-03-17T15:30:00.916Z,3524.00
2019-03-17T15:31:11.608Z,3084.00
2019-03-17T15:32:00.848Z,2636.00
2019-03-17T15:33:00.821Z,2580.00
2019-03-17T15:34:00.796Z,2348.00
2019-03-17T15:35:00.773Z,2060.00
2019-03-17T15:36:00.745Z,2004.00
2019-03-17T15:37:00.718Z,2200.00
2019-03-17T15:38:00.695Z,2348.00
2019-03-17T15:39:00.667Z,2772.00
2019-03-17T15:40:00.642Z,2676.00
2019-03-17T15:41:00.614Z,2140.00
2019-03-17T15:42:00.589Z,1840.00
2019-03-17T15:43:00.564Z,1692.00
2019-03-17T15:44:01.290Z,1548.00
2019-03-17T15:45:00.511Z,1240.00
2019-03-17T15:46:00.485Z,1004.00
2019-03-17T15:47:00.461Z,916.00
2019-03-17T15:48:00.432Z,864.00
2019-03-17T15:49:00.405Z,856.00
2019-03-17T15:50:00.380Z,896.00
2019-03-17T15:51:00.352Z,920.00
2019-03-17T15:52:00.326Z,868.00
2019-03-17T15:53:00.309Z,808.00
2019-03-17T15:54:00.270Z,776.00
2019-03-17T15:55:00.374Z,808.00
2019-03-17T15:56:00.219Z,768.00
2019-03-17T15:57:00.191Z,672.00
2019-03-17T15:58:00.164Z,608.00
2019-03-17T15:59:00.137Z,612.00
2019-03-17T16:00:00.114Z,644.00
2019-03-17T16:01:00.088Z,644.00
2019-03-17T16:02:00.057Z,644.00
2019-03-17T16:03:00.032Z,656.00
2019-03-17T16:04:00.004Z,712.00
2019-03-17T16:04:59.974Z,684.00
2019-03-17T16:05:59.950Z,632.00
2019-03-17T16:06:59.922Z,588.00
2019-03-17T16:07:59.894Z,592.00
2019-03-17T16:08:59.866Z,612.00
2019-03-17T16:09:59.838Z,576.00
2019-03-17T16:10:59.811Z,616.00
2019-03-17T16:11:59.783Z,568.00
2019-03-17T16:12:59.756Z,512.00
2019-03-17T16:13:59.732Z,492.00
2019-03-17T16:14:59.704Z,472.00
2019-03-17T16:15:59.674Z,520.00
2019-03-17T16:16:59.645Z,528.00
2019-03-17T16:17:59.621Z,524.00
2019-03-17T16:18:59.594Z,524.00
2019-03-17T16:19:59.565Z,540.00
2019-03-17T16:20:59.537Z,560.00
2019-03-17T16:21:59.509Z,552.00
2019-03-17T16:22:59.481Z,564.00
2019-03-17T16:23:59.454Z,512.00
2019-03-17T16:24:59.424Z,516.00
2019-03-17T16:25:59.398Z,500.00
2019-03-17T16:26:59.369Z,548.00
2019-03-17T16:27:59.341Z,564.00
2019-03-17T16:28:59.312Z,564.00
2019-03-17T16:29:59.285Z,552.00
2019-03-17T16:30:59.258Z,516.00
2019-03-17T16:31:59.230Z,516.00
2019-03-17T16:32:59.207Z,492.00
2019-03-17T16:33:59.244Z,536.00
2019-03-17T16:34:59.146Z,512.00
2019-03-17T16:35:59.118Z,492.00
2019-03-17T16:37:02.091Z,468.00
2019-03-17T16:37:59.062Z,452.00
2019-03-17T16:38:59.034Z,384.00
2019-03-17T16:39:59.005Z,400.00
2019-03-17T16:40:58.976Z,380.00
2019-03-17T16:41:58.947Z,380.00
2019-03-17T16:43:00.436Z,364.00
2019-03-17T16:43:58.892Z,352.00
2019-03-17T16:44:58.862Z,288.00
2019-03-17T16:45:58.834Z,268.00
2019-03-17T16:46:58.806Z,256.00
2019-03-17T16:47:58.778Z,224.00
2019-03-17T16:48:58.750Z,196.00
2019-03-17T16:49:59.109Z,212.00
2019-03-17T16:50:58.695Z,208.00
2019-03-17T16:51:58.664Z,164.00
2019-03-17T16:52:58.635Z,172.00
2019-03-17T16:53:58.611Z,156.00
2019-03-17T16:54:58.577Z,140.00
2019-03-17T16:55:58.550Z,156.00
2019-03-17T16:56:58.521Z,152.00
2019-03-17T16:57:58.492Z,132.00
2019-03-17T16:58:58.464Z,136.00
2019-03-17T16:59:58.435Z,112.00
2019-03-17T17:00:58.406Z,100.00
2019-03-17T17:01:58.378Z,96.00
2019-03-17T17:02:58.352Z,80.00
2019-03-17T17:03:58.320Z,76.00
2019-03-17T17:04:58.292Z,68.00
2019-03-17T17:05:58.263Z,60.00
2019-03-17T17:06:58.237Z,56.00
2019-03-17T17:07:58.212Z,56.00
2019-03-17T17:08:58.182Z,52.00
2019-03-17T17:09:58.146Z,60.00
2019-03-17T17:11:00.496Z,56.00
2019-03-17T17:11:58.091Z,56.00
2019-03-17T17:12:58.062Z,52.00
2019-03-17T17:13:58.047Z,52.00
2019-03-17T17:14:58.005Z,56.00
2019-03-17T17:15:57.977Z,56.00
2019-03-17T17:16:57.957Z,60.00
2019-03-17T17:17:58.198Z,52.00
2019-03-17T17:18:57.890Z,56.00
2019-03-17T17:19:57.862Z,68.00
2019-03-17T17:20:57.834Z,68.00
2019-03-17T17:21:58.876Z,68.00
2019-03-17T17:22:57.775Z,72.00
2019-03-17T17:23:57.749Z,80.00
2019-03-17T17:24:57.718Z,84.00
2019-03-17T17:25:57.690Z,84.00
2019-03-17T17:26:57.663Z,68.00
2019-03-17T17:27:57.632Z,56.00
2019-03-17T17:28:57.606Z,56.00
2019-03-17T17:29:57.575Z,52.00
2019-03-17T17:30:57.546Z,48.00
2019-03-17T17:31:57.522Z,52.00
2019-03-17T17:32:57.488Z,48.00
2019-03-17T17:33:57.460Z,40.00
2019-03-17T17:34:57.432Z,32.00
2019-03-17T17:35:57.403Z,28.00
2019-03-17T17:36:57.374Z,24.00
2019-03-17T17:37:57.345Z,20.00
2019-03-17T17:38:57.318Z,20.00
2019-03-17T17:39:57.289Z,16.00
2019-03-17T17:40:57.260Z,16.00
2019-03-17T17:42:08.288Z,12.00
2019-03-17T17:42:57.202Z,12.00
2019-03-17T17:43:57.175Z,12.00
2019-03-17T17:44:57.147Z,8.00
2019-03-17T17:45:57.118Z,8.00
2019-03-17T17:46:58.261Z,8.00
2019-03-17T17:47:57.063Z,8.00
2019-03-17T17:48:57.032Z,4.00
2019-03-17T17:49:57.005Z,8.00
2019-03-17T17:50:56.976Z,4.00
2019-03-17T17:51:56.948Z,4.00
2019-03-17T17:52:56.920Z,4.00
2019-03-17T17:53:56.891Z,0.00
2019-03-17T17:54:56.863Z,4.00
2019-03-17T17:55:56.833Z,4.00
2019-03-17T17:56:56.806Z,4.00
2019-03-17T17:57:56.777Z,4.00
2019-03-17T17:58:56.750Z,4.00
2019-03-17T17:59:56.721Z,4.00
2019-03-17T18:00:56.692Z,4.00
2019-03-17T18:01:56.662Z,0.00
2019-03-17T18:02:58.842Z,0.00
2019-03-17T18:03:56.606Z,0.00
2019-03-17T18:04:56.578Z,4.00
2019-03-17T18:05:56.552Z,4.00
2019-03-17T18:06:56.521Z,4.00
2019-03-17T18:07:56.493Z,4.00
2019-03-17T18:08:56.464Z,4.00
2019-03-17T18:09:56.437Z,4.00
2019-03-17T18:10:56.408Z,4.00
2019-03-17T18:11:56.379Z,4.00
2019-03-17T18:12:56.350Z,4.00
2019-03-17T18:13:56.322Z,4.00
2019-03-17T18:14:57.795Z,4.00
2019-03-17T18:15:56.264Z,4.00
2019-03-17T18:16:56.237Z,4.00
2019-03-17T18:17:56.209Z,4.00
2019-03-17T18:18:56.181Z,4.00
2019-03-17T18:19:56.153Z,4.00
2019-03-17T18:20:56.123Z,4.00
2019-03-17T18:21:56.095Z,4.00
2019-03-17T18:22:56.066Z,4.00
2019-03-17T18:23:56.037Z,4.00
2019-03-17T18:24:56.011Z,4.00
2019-03-17T18:25:55.980Z,4.00
2019-03-17T18:26:55.952Z,4.00
2019-03-17T18:27:55.926Z,4.00
2019-03-17T18:28:55.903Z,4.00
2019-03-17T18:29:55.867Z,4.00
2019-03-17T18:30:55.839Z,4.00
2019-03-17T18:31:55.810Z,4.00
2019-03-17T18:32:55.781Z,4.00
2019-03-17T18:33:55.752Z,4.00
2019-03-17T18:34:55.729Z,4.00
2019-03-17T18:35:55.724Z,4.00
2019-03-17T18:36:55.667Z,4.00
2019-03-17T18:37:55.695Z,4.00
2019-03-17T18:38:55.637Z,4.00
2019-03-17T18:39:55.584Z,4.00
2019-03-17T18:40:55.553Z,4.00
2019-03-17T18:41:55.524Z,4.00
2019-03-17T18:42:55.496Z,4.00
2019-03-17T18:43:55.470Z,4.00
2019-03-17T18:44:55.438Z,4.00
2019-03-17T18:45:55.410Z,4.00
2019-03-17T18:46:55.382Z,4.00
2019-03-17T18:47:57.570Z,4.00
2019-03-17T18:48:55.324Z,4.00
2019-03-17T18:49:55.296Z,4.00
2019-03-17T18:50:55.268Z,4.00
2019-03-17T18:51:55.239Z,4.00
2019-03-17T18:52:55.212Z,4.00
2019-03-17T18:53:55.182Z,4.00
2019-03-17T18:54:55.244Z,4.00
2019-03-17T18:55:55.125Z,4.00
2019-03-17T18:56:55.096Z,4.00
2019-03-17T18:57:55.068Z,4.00
2019-03-17T18:58:55.039Z,4.00
2019-03-17T18:59:55.012Z,4.00
2019-03-17T19:00:54.983Z,4.00
2019-03-17T19:01:54.953Z,4.00
2019-03-17T19:02:54.927Z,4.00
2019-03-17T19:03:54.901Z,4.00
2019-03-17T19:04:55.625Z,4.00
2019-03-17T19:05:54.843Z,4.00
2019-03-17T19:06:54.815Z,4.00
2019-03-17T19:07:54.785Z,4.00
2019-03-17T19:08:54.756Z,4.00
2019-03-17T19:09:54.728Z,4.00
2019-03-17T19:10:55.109Z,4.00
2019-03-17T19:11:54.672Z,4.00
2019-03-17T19:12:54.642Z,4.00
2019-03-17T19:13:54.613Z,4.00
2019-03-17T19:14:54.585Z,4.00
2019-03-17T19:15:54.557Z,4.00
2019-03-17T19:16:54.530Z,4.00
2019-03-17T19:17:54.500Z,4.00
2019-03-17T19:18:54.473Z,4.00
2019-03-17T19:19:54.445Z,4.00
2019-03-17T19:20:54.417Z,4.00
2019-03-17T19:21:54.388Z,4.00
2019-03-17T19:22:54.363Z,4.00
2019-03-17T19:23:54.332Z,4.00
2019-03-17T19:24:54.303Z,4.00
2019-03-17T19:25:56.626Z,4.00
2019-03-17T19:26:54.247Z,4.00
2019-03-17T19:27:54.219Z,4.00
2019-03-17T19:28:54.189Z,4.00
2019-03-17T19:29:54.161Z,4.00
2019-03-17T19:30:54.133Z,4.00
2019-03-17T19:31:54.856Z,4.00
2019-03-17T19:32:54.081Z,4.00
2019-03-17T19:33:54.050Z,4.00
2019-03-17T19:34:54.020Z,4.00
2019-03-17T19:35:55.246Z,4.00
2019-03-17T19:36:53.963Z,4.00